createdAt,value
2023-03-23T15:58:26.491Z,15.58
2023-03-23T16:00:54.518Z,15.56
2023-03-23T16:03:27.781Z,15.52
2023-03-23T16:05:55.648Z,15.49
2023-03-23T16:08:23.170Z,15.47
2023-03-23T16:10:51.292Z,15.45
2023-03-23T16:13:18.508Z,15.41
2023-03-23T16:15:46.321Z,15.37
2023-03-23T16:18:21.828Z,15.35
2023-03-23T16:20:50.191Z,15.31
2023-03-23T16:23:19.882Z,15.27
2023-03-23T16:25:47.017Z,15.24
2023-03-23T16:28:15.477Z,15.21
2023-03-23T16:30:45.641Z,15.16
2023-03-23T16:33:13.039Z,15.09
2023-03-23T16:35:40.333Z,15.05
2023-03-23T16:38:09.292Z,14.99
2023-03-23T16:40:38.504Z,14.94
2023-03-23T16:43:08.456Z,14.88
2023-03-23T16:45:36.796Z,14.81
2023-03-23T16:48:04.198Z,14.77
2023-03-23T16:50:32.272Z,14.72
2023-03-23T16:52:59.676Z,14.69
2023-03-23T16:55:27.317Z,14.65
2023-03-23T16:58:05.411Z,14.60
2023-03-23T17:00:41.051Z,14.56
2023-03-23T17:03:09.098Z,14.53
2023-03-23T17:05:38.588Z,14.49
2023-03-23T17:08:07.550Z,14.45
2023-03-23T17:10:35.489Z,14.41
2023-03-23T17:13:03.184Z,14.36
2023-03-23T17:15:30.260Z,14.33
2023-03-23T17:17:58.110Z,14.27
2023-03-23T17:20:25.869Z,14.22
2023-03-23T17:22:53.154Z,14.19
2023-03-23T17:25:20.439Z,14.15
2023-03-23T17:27:47.510Z,14.13
2023-03-23T17:30:15.516Z,14.09
2023-03-23T17:32:42.864Z,14.06
2023-03-23T17:35:12.495Z,14.03
2023-03-23T17:37:39.929Z,14.00
2023-03-23T17:40:10.345Z,13.98
2023-03-23T17:42:38.096Z,13.96
2023-03-23T17:45:06.434Z,13.94
2023-03-23T17:47:34.288Z,13.91
2023-03-23T17:50:11.519Z,13.89
2023-03-23T17:52:40.137Z,13.87
2023-03-23T17:55:08.457Z,13.85
2023-03-23T17:57:36.262Z,13.84
2023-03-23T18:00:04.171Z,13.82
2023-03-23T18:02:34.239Z,13.82
2023-03-23T18:05:01.555Z,13.81
2023-03-23T18:07:29.317Z,13.80
2023-03-23T18:10:00.745Z,13.80
2023-03-23T18:12:27.951Z,13.78
2023-03-23T18:14:59.136Z,13.75
2023-03-23T18:17:26.787Z,13.75
2023-03-23T18:19:54.130Z,13.75
2023-03-23T18:22:21.529Z,13.74
2023-03-23T18:24:48.917Z,13.73
2023-03-23T18:27:17.447Z,13.71
2023-03-23T18:29:45.165Z,13.70
2023-03-23T18:32:12.891Z,13.70
2023-03-23T18:34:41.799Z,13.69
2023-03-23T18:37:09.778Z,13.70
2023-03-23T18:39:37.059Z,13.69
2023-03-23T18:42:04.214Z,13.69
2023-03-23T18:44:31.940Z,13.68
2023-03-23T18:46:59.031Z,13.67
2023-03-23T18:49:26.426Z,13.66
2023-03-23T18:51:53.760Z,13.64
2023-03-23T18:54:22.139Z,13.61
2023-03-23T18:56:49.526Z,13.56
2023-03-23T18:59:17.144Z,13.53
2023-03-23T19:01:44.242Z,13.49
2023-03-23T19:04:13.726Z,13.47
2023-03-23T19:06:41.186Z,13.46
2023-03-23T19:09:08.337Z,13.45
2023-03-23T19:11:35.882Z,13.44
2023-03-23T19:14:03.819Z,13.44
2023-03-23T19:16:32.356Z,13.45
2023-03-23T19:19:10.363Z,13.45
2023-03-23T19:21:39.854Z,13.46
2023-03-23T19:24:09.094Z,13.47
2023-03-23T19:26:38.391Z,13.48
2023-03-23T19:31:36.468Z,13.49
2023-03-23T19:34:03.776Z,13.51
2023-03-23T19:36:31.438Z,13.52
2023-03-23T19:39:02.803Z,13.53
2023-03-23T19:41:30.552Z,13.55
2023-03-23T19:43:57.889Z,13.57
2023-03-23T19:46:27.012Z,13.59
2023-03-23T19:48:56.517Z,13.60
2023-03-23T19:51:24.414Z,13.61
2023-03-23T19:53:51.754Z,13.61
2023-03-23T19:56:21.639Z,13.59
2023-03-23T19:58:49.441Z,13.60
2023-03-23T20:01:20.407Z,13.67
2023-03-23T20:03:48.482Z,13.68
2023-03-23T20:06:17.828Z,13.66
2023-03-23T20:08:46.235Z,13.65
2023-03-23T20:11:14.884Z,13.65
2023-03-23T20:13:42.659Z,13.65
2023-03-23T20:16:11.818Z,13.64
2023-03-23T20:18:40.549Z,13.62
2023-03-23T20:21:11.993Z,13.60
2023-03-23T20:23:40.561Z,13.58
2023-03-23T20:26:12.301Z,13.54
2023-03-23T20:28:40.800Z,13.53
2023-03-23T20:31:19.955Z,13.50
2023-03-23T20:34:00.572Z,13.48
2023-03-23T20:36:29.958Z,13.46
2023-03-23T20:38:58.011Z,13.44
2023-03-23T20:41:25.752Z,13.42
2023-03-23T20:43:52.999Z,13.41
2023-03-23T20:46:21.696Z,13.39
2023-03-23T20:48:51.802Z,13.38
2023-03-23T20:51:23.270Z,13.37
2023-03-23T20:53:51.140Z,13.35
2023-03-23T20:56:19.772Z,13.34
2023-03-23T20:58:47.976Z,13.33
2023-03-23T21:01:22.819Z,13.33
2023-03-23T21:03:54.373Z,13.28
2023-03-23T21:06:22.230Z,13.26
2023-03-23T21:08:52.576Z,13.23
2023-03-23T21:11:22.312Z,13.21
2023-03-23T21:13:50.739Z,13.20
2023-03-23T21:16:19.379Z,13.18
2023-03-23T21:18:47.776Z,13.16
2023-03-23T21:21:18.469Z,13.15
2023-03-23T21:23:52.258Z,13.14
2023-03-23T21:26:21.668Z,13.13
2023-03-23T21:28:50.925Z,13.13
2023-03-23T21:31:18.501Z,13.13
2023-03-23T21:33:46.099Z,13.12
2023-03-23T21:36:13.935Z,13.12
2023-03-23T21:38:41.702Z,13.13
2023-03-23T21:41:11.933Z,13.13
2023-03-23T21:43:40.724Z,13.13
2023-03-23T21:46:10.033Z,13.10
2023-03-23T21:48:38.822Z,13.09
2023-03-23T21:51:10.732Z,13.10
2023-03-23T21:53:38.009Z,13.12
2023-03-23T21:56:08.057Z,13.10
2023-03-23T21:58:35.636Z,13.06
2023-03-23T22:01:03.201Z,13.01
2023-03-23T22:03:32.831Z,12.96
2023-03-23T22:06:00.839Z,12.92
2023-03-23T22:08:30.669Z,12.87
2023-03-23T22:11:02.821Z,12.83
2023-03-23T22:13:30.532Z,12.80
2023-03-23T22:15:58.758Z,12.76
2023-03-23T22:18:26.215Z,12.71
2023-03-23T22:20:53.420Z,12.67
2023-03-23T22:23:20.870Z,12.63
2023-03-23T22:25:48.288Z,12.60
2023-03-23T22:28:15.481Z,12.55
2023-03-23T22:30:43.692Z,12.50
2023-03-23T22:33:17.826Z,12.49
2023-03-23T22:35:47.801Z,12.48
2023-03-23T22:38:15.223Z,12.48
2023-03-23T22:40:43.104Z,12.48
2023-03-23T22:43:10.853Z,12.46
2023-03-23T22:45:38.060Z,12.47
2023-03-23T22:48:08.262Z,12.47
2023-03-23T22:50:36.147Z,12.47
2023-03-23T22:53:03.535Z,12.45
2023-03-23T22:55:30.927Z,12.41
2023-03-23T22:57:58.786Z,12.39
2023-03-23T23:00:26.557Z,12.36
2023-03-23T23:02:53.948Z,12.32
2023-03-23T23:05:21.141Z,12.30
2023-03-23T23:07:48.352Z,12.27
2023-03-23T23:10:15.718Z,12.25
2023-03-23T23:12:45.739Z,12.21
2023-03-23T23:15:14.889Z,12.19
2023-03-23T23:17:43.168Z,12.16
2023-03-23T23:20:14.227Z,12.14
2023-03-23T23:22:43.126Z,12.10
2023-03-23T23:25:11.638Z,12.06
2023-03-23T23:27:38.879Z,12.04
2023-03-23T23:30:09.205Z,12.01
2023-03-23T23:32:36.640Z,11.97
2023-03-23T23:35:05.804Z,11.94
2023-03-23T23:37:33.218Z,11.91
2023-03-23T23:40:00.365Z,11.88
2023-03-23T23:42:27.604Z,11.84
2023-03-23T23:44:54.882Z,11.80
2023-03-23T23:47:22.464Z,11.77
2023-03-23T23:49:49.701Z,11.74
2023-03-23T23:52:16.821Z,11.70
2023-03-23T23:54:47.308Z,11.68
2023-03-23T23:57:15.595Z,11.64
2023-03-23T23:59:44.051Z,11.62
